createdAt,value
2019-04-13T00:00:10.289Z,30.10
2019-04-13T00:02:41.601Z,23.50
2019-04-13T00:05:29.002Z,29.18
2019-04-13T00:08:01.875Z,26.97
2019-04-13T00:10:42.473Z,24.23
2019-04-13T00:13:11.903Z,27.67
2019-04-13T00:15:41.215Z,25.88
2019-04-13T00:18:10.544Z,27.25
2019-04-13T00:20:40.047Z,26.52
2019-04-13T00:23:09.494Z,26.25
2019-04-13T00:25:38.998Z,32.28
2019-04-13T00:28:08.393Z,33.58
2019-04-13T00:30:37.742Z,26.40
2019-04-13T00:33:07.020Z,25.23
2019-04-13T00:35:39.174Z,28.00
2019-04-13T00:38:08.490Z,28.65
2019-04-13T00:40:38.018Z,27.67
2019-04-13T00:43:07.392Z,26.73
2019-04-13T00:45:36.965Z,32.10
2019-04-13T00:48:06.389Z,32.50
2019-04-13T00:50:35.769Z,28.77
2019-04-13T00:53:05.185Z,28.77
2019-04-13T00:55:34.900Z,26.85
2019-04-13T00:58:04.227Z,33.65
2019-04-13T01:00:33.707Z,31.23
2019-04-13T01:03:03.047Z,29.45
2019-04-13T01:05:32.899Z,29.95
2019-04-13T01:08:02.309Z,27.75
2019-04-13T01:10:31.681Z,31.25
2019-04-13T01:13:01.101Z,31.77
2019-04-13T01:15:30.456Z,24.55
2019-04-13T01:17:59.904Z,25.77
2019-04-13T01:20:29.304Z,29.57
2019-04-13T01:22:58.732Z,29.63
2019-04-13T01:25:28.222Z,25.70
2019-04-13T01:27:57.630Z,30.05
2019-04-13T01:30:27.079Z,26.10
2019-04-13T01:32:56.483Z,26.35
2019-04-13T01:35:25.790Z,25.72
2019-04-13T01:37:55.233Z,26.30
2019-04-13T01:40:24.631Z,27.48
2019-04-13T01:42:53.941Z,27.37
2019-04-13T01:45:23.358Z,31.15
2019-04-13T01:47:52.743Z,31.35
2019-04-13T01:50:22.194Z,29.07
2019-04-13T01:52:51.569Z,24.55
2019-04-13T01:55:20.882Z,26.73
2019-04-13T01:57:50.289Z,34.15
2019-04-13T02:00:22.244Z,28.27
2019-04-13T02:02:52.421Z,29.77
2019-04-13T02:05:36.366Z,27.45
2019-04-13T02:08:11.714Z,35.55
2019-04-13T02:10:43.757Z,32.17
2019-04-13T02:13:13.109Z,29.65
2019-04-13T02:15:42.418Z,27.93
2019-04-13T02:18:11.719Z,33.75
2019-04-13T02:20:41.097Z,35.88
2019-04-13T02:23:10.496Z,34.08
2019-04-13T02:25:39.891Z,33.28
2019-04-13T02:28:09.329Z,31.42
2019-04-13T02:30:38.752Z,31.27
2019-04-13T02:33:08.100Z,30.15
2019-04-13T02:35:38.417Z,48.73
2019-04-13T02:38:07.761Z,34.15
2019-04-13T02:40:37.182Z,31.57
2019-04-13T02:43:06.615Z,27.67
2019-04-13T02:45:36.007Z,33.55
2019-04-13T02:48:05.314Z,32.78
2019-04-13T02:50:37.453Z,28.02
2019-04-13T02:53:06.798Z,32.55
2019-04-13T02:55:36.175Z,30.97
2019-04-13T02:58:05.561Z,33.50
2019-04-13T03:00:34.932Z,35.50
2019-04-13T03:03:04.813Z,34.50
2019-04-13T03:05:41.367Z,39.00
2019-04-13T03:08:05.510Z,30.23
2019-04-13T03:10:34.914Z,40.52
2019-04-13T03:13:04.360Z,39.98
2019-04-13T03:16:02.000Z,36.50
2019-04-13T03:18:36.148Z,34.98
2019-04-13T03:21:05.552Z,34.58
2019-04-13T03:23:34.907Z,31.25
2019-04-13T03:26:04.204Z,36.93
2019-04-13T03:28:33.540Z,37.45
2019-04-13T03:31:02.937Z,33.35
2019-04-13T03:33:32.250Z,33.40
2019-04-13T03:36:01.701Z,34.83
2019-04-13T03:38:31.079Z,34.75
2019-04-13T03:41:00.480Z,36.75
2019-04-13T03:43:29.864Z,32.45
2019-04-13T03:45:59.290Z,37.88
2019-04-13T03:48:28.704Z,35.50
2019-04-13T03:50:58.087Z,30.50
2019-04-13T03:53:27.408Z,37.85
2019-04-13T03:55:56.793Z,31.48
2019-04-13T03:58:26.214Z,35.33
2019-04-13T04:00:55.558Z,40.35
2019-04-13T04:03:25.064Z,38.45
2019-04-13T04:05:54.424Z,42.08
2019-04-13T04:08:23.834Z,37.45
2019-04-13T04:10:53.209Z,40.52
2019-04-13T04:13:22.564Z,34.15
2019-04-13T04:15:51.955Z,39.73
2019-04-13T04:18:21.543Z,40.23
2019-04-13T04:20:51.077Z,33.85
2019-04-13T04:23:20.460Z,35.48
2019-04-13T04:25:49.770Z,35.60
2019-04-13T04:28:19.192Z,31.23
2019-04-13T04:30:48.548Z,36.83
2019-04-13T04:33:17.898Z,34.85
2019-04-13T04:35:47.308Z,35.70
2019-04-13T04:38:16.776Z,39.45
2019-04-13T04:40:46.143Z,32.25
2019-04-13T04:43:15.530Z,39.13
2019-04-13T04:45:45.021Z,36.15
2019-04-13T04:48:14.410Z,39.50
2019-04-13T04:50:43.794Z,38.80
2019-04-13T04:53:13.089Z,42.05
2019-04-13T04:55:42.414Z,39.30
2019-04-13T04:58:11.776Z,40.25
2019-04-13T05:00:41.264Z,34.80
2019-04-13T05:03:10.664Z,39.23
2019-04-13T05:05:41.448Z,37.20
2019-04-13T05:08:14.408Z,40.25
2019-04-13T05:10:41.929Z,33.60
2019-04-13T05:13:11.327Z,38.80
2019-04-13T05:15:40.630Z,30.30
2019-04-13T05:18:10.061Z,35.08
2019-04-13T05:20:39.405Z,35.40
2019-04-13T05:23:08.786Z,31.93
2019-04-13T05:25:38.257Z,46.60
2019-04-13T05:28:07.563Z,33.45
2019-04-13T05:30:37.012Z,39.40
2019-04-13T05:33:06.414Z,35.63
2019-04-13T05:35:35.745Z,33.65
2019-04-13T05:38:05.273Z,33.90
2019-04-13T05:40:34.792Z,31.57
2019-04-13T05:43:04.205Z,43.35
2019-04-13T05:45:36.800Z,35.63
2019-04-13T05:48:06.310Z,27.95
2019-04-13T05:50:35.653Z,35.00
2019-04-13T05:53:04.978Z,29.52
2019-04-13T05:55:34.494Z,30.55
2019-04-13T05:58:03.799Z,37.15
2019-04-13T06:00:33.175Z,36.17
2019-04-13T06:03:02.504Z,33.65
2019-04-13T06:05:31.988Z,41.92
2019-04-13T06:08:01.384Z,33.40
2019-04-13T06:10:30.741Z,37.58
2019-04-13T06:13:00.109Z,33.15
2019-04-13T06:15:31.124Z,34.03
2019-04-13T06:18:00.537Z,36.75
2019-04-13T06:20:32.721Z,30.70
2019-04-13T06:23:02.232Z,28.42
2019-04-13T06:25:31.767Z,36.65
2019-04-13T06:28:01.153Z,31.50
2019-04-13T06:30:48.353Z,28.55
2019-04-13T06:33:39.708Z,31.97
2019-04-13T06:36:09.556Z,27.42
2019-04-13T06:38:39.150Z,34.70
2019-04-13T06:41:10.890Z,39.30
2019-04-13T06:43:39.683Z,42.15
2019-04-13T06:46:09.111Z,35.20
2019-04-13T06:48:38.499Z,37.83
2019-04-13T06:51:07.930Z,39.23
2019-04-13T06:53:38.559Z,36.90
2019-04-13T06:56:08.584Z,30.05
2019-04-13T06:58:38.003Z,31.02
2019-04-13T07:01:07.469Z,33.35
2019-04-13T07:03:37.007Z,36.08
2019-04-13T07:06:06.502Z,42.08
2019-04-13T07:08:41.085Z,36.40
2019-04-13T07:11:21.531Z,36.20
2019-04-13T07:13:53.117Z,48.08
2019-04-13T07:16:31.586Z,42.88
2019-04-13T07:19:00.976Z,41.95
2019-04-13T07:21:30.320Z,34.25
2019-04-13T07:23:59.691Z,42.20
2019-04-13T07:26:29.200Z,46.33
2019-04-13T07:28:58.559Z,44.08
2019-04-13T07:31:31.111Z,43.55
2019-04-13T07:33:59.086Z,42.62
2019-04-13T07:36:28.550Z,49.83
2019-04-13T07:38:58.029Z,48.52
2019-04-13T07:41:31.139Z,48.08
2019-04-13T07:43:58.624Z,45.70
2019-04-13T07:46:56.047Z,57.00
2019-04-13T07:49:44.061Z,48.28
2019-04-13T07:52:41.356Z,50.65
2019-04-13T07:55:11.026Z,58.48
2019-04-13T07:57:40.562Z,54.53
2019-04-13T08:00:10.161Z,65.83
2019-04-13T08:02:39.686Z,62.10
2019-04-13T08:05:09.105Z,61.80
2019-04-13T08:07:49.145Z,61.28
2019-04-13T08:10:09.712Z,60.20
2019-04-13T08:12:39.213Z,53.73
2019-04-13T08:15:08.733Z,59.10
2019-04-13T08:17:38.162Z,61.60
2019-04-13T08:20:29.505Z,58.17
2019-04-13T08:22:59.293Z,59.83
2019-04-13T08:25:28.735Z,57.53
2019-04-13T08:27:58.178Z,61.85
2019-04-13T08:30:29.165Z,58.83
2019-04-13T08:33:00.917Z,57.38
2019-04-13T08:35:29.770Z,67.60
2019-04-13T08:38:12.211Z,66.90
2019-04-13T08:40:30.273Z,58.45
2019-04-13T08:42:59.926Z,56.33
2019-04-13T08:45:29.852Z,50.20
2019-04-13T08:47:59.237Z,62.13
2019-04-13T08:50:28.907Z,50.63
2019-04-13T08:53:01.266Z,54.63
2019-04-13T08:55:30.674Z,61.50
2019-04-13T08:58:00.234Z,61.55
2019-04-13T09:00:29.593Z,53.30
2019-04-13T09:02:59.023Z,57.55
2019-04-13T09:05:31.514Z,55.35
2019-04-13T09:08:00.928Z,56.63
2019-04-13T09:10:31.704Z,46.08
2019-04-13T09:13:01.415Z,48.87
2019-04-13T09:15:31.159Z,45.75
2019-04-13T09:18:14.798Z,48.00
2019-04-13T09:20:52.531Z,50.52
2019-04-13T09:23:23.159Z,53.65
2019-04-13T09:25:52.632Z,52.03
2019-04-13T09:28:22.176Z,52.85
2019-04-13T09:30:52.334Z,50.12
2019-04-13T09:33:22.286Z,50.88
2019-04-13T09:35:56.212Z,54.48
2019-04-13T09:38:23.038Z,60.30
2019-04-13T09:40:52.527Z,59.42
2019-04-13T09:43:26.584Z,43.65
2019-04-13T09:45:56.156Z,48.38
2019-04-13T09:48:25.605Z,57.85
2019-04-13T09:50:55.185Z,46.85
2019-04-13T09:53:24.507Z,49.05
2019-04-13T09:55:53.854Z,47.75
2019-04-13T09:58:23.281Z,52.08
2019-04-13T10:00:52.744Z,59.10
2019-04-13T10:03:22.142Z,44.53
2019-04-13T10:05:51.533Z,65.15
2019-04-13T10:08:21.033Z,51.50
2019-04-13T10:10:50.457Z,57.05
2019-04-13T10:13:41.830Z,56.18
2019-04-13T10:16:30.168Z,51.85
2019-04-13T10:18:59.778Z,61.95
2019-04-13T10:21:29.295Z,57.23
2019-04-13T10:23:58.737Z,46.58
2019-04-13T10:26:29.442Z,53.40
2019-04-13T10:28:59.102Z,46.60
2019-04-13T10:31:28.640Z,48.80
2019-04-13T10:33:58.157Z,43.92
2019-04-13T10:36:27.625Z,48.15
2019-04-13T10:39:07.947Z,50.30
2019-04-13T10:41:28.121Z,51.53
2019-04-13T10:43:59.720Z,40.43
2019-04-13T10:46:44.370Z,42.35
2019-04-13T10:49:38.815Z,43.75
2019-04-13T10:52:12.783Z,40.83
2019-04-13T10:54:42.193Z,40.73
2019-04-13T10:57:12.819Z,42.85
2019-04-13T10:59:43.436Z,37.05
2019-04-13T11:02:21.678Z,38.30
2019-04-13T11:04:43.933Z,34.33
2019-04-13T11:07:13.308Z,33.25
2019-04-13T11:09:42.843Z,34.65
2019-04-13T11:12:12.363Z,34.15
2019-04-13T11:14:43.365Z,28.67
2019-04-13T11:17:13.100Z,25.55
2019-04-13T11:19:42.556Z,25.77
2019-04-13T11:22:12.027Z,29.60
2019-04-13T11:24:41.733Z,31.35
2019-04-13T11:27:11.567Z,36.50
2019-04-13T11:29:40.915Z,28.05
2019-04-13T11:32:10.361Z,32.25
2019-04-13T11:34:39.805Z,24.60
2019-04-13T11:37:09.204Z,28.77
2019-04-13T11:39:41.442Z,31.73
2019-04-13T11:42:28.746Z,26.82
2019-04-13T11:45:16.028Z,23.60
2019-04-13T11:48:07.510Z,26.35
2019-04-13T11:50:41.801Z,24.80
2019-04-13T11:53:11.195Z,26.02
2019-04-13T11:55:40.633Z,28.55
2019-04-13T11:58:10.105Z,32.40
2019-04-13T12:01:02.547Z,36.23
2019-04-13T12:03:53.863Z,31.55
2019-04-13T12:06:30.735Z,26.00
2019-04-13T12:09:06.898Z,33.65
2019-04-13T12:12:00.962Z,27.62
2019-04-13T12:14:51.523Z,28.42
2019-04-13T12:17:52.004Z,27.85
2019-04-13T12:20:32.592Z,29.65
2019-04-13T12:23:02.003Z,29.80
2019-04-13T12:25:31.410Z,23.83
2019-04-13T12:28:00.867Z,23.07
2019-04-13T12:30:31.632Z,20.68
2019-04-13T12:33:01.017Z,28.32
2019-04-13T12:35:33.839Z,27.77
2019-04-13T12:38:03.937Z,23.47
2019-04-13T12:40:43.541Z,34.85
2019-04-13T12:43:13.672Z,30.00
2019-04-13T12:45:45.826Z,28.85
2019-04-13T12:48:18.511Z,31.85
2019-04-13T12:50:46.376Z,29.95
2019-04-13T12:53:15.789Z,24.45
2019-04-13T12:55:45.108Z,33.50
2019-04-13T12:58:14.533Z,34.67
2019-04-13T13:00:50.127Z,26.20
2019-04-13T13:03:21.540Z,28.83
2019-04-13T13:05:55.177Z,28.17
2019-04-13T13:08:24.651Z,27.15
2019-04-13T13:10:54.370Z,24.77
2019-04-13T13:13:23.850Z,34.20
2019-04-13T13:15:53.332Z,33.30
2019-04-13T13:18:26.195Z,25.70
2019-04-13T13:20:53.863Z,35.00
2019-04-13T13:23:23.434Z,29.32
2019-04-13T13:25:52.835Z,30.75
2019-04-13T13:28:22.249Z,32.42
2019-04-13T13:30:51.811Z,35.33
2019-04-13T13:33:21.227Z,32.80
2019-04-13T13:35:50.789Z,33.73
2019-04-13T13:38:20.307Z,28.70
2019-04-13T13:40:49.874Z,26.57
2019-04-13T13:43:19.268Z,29.75
2019-04-13T13:45:48.713Z,34.35
2019-04-13T13:48:18.131Z,28.25
2019-04-13T13:50:47.490Z,35.25
2019-04-13T13:53:18.822Z,28.00
2019-04-13T13:55:48.043Z,30.60
2019-04-13T13:58:41.651Z,25.25
2019-04-13T14:01:17.412Z,29.52
2019-04-13T14:03:46.886Z,30.60
2019-04-13T14:06:18.485Z,27.95
2019-04-13T14:08:47.622Z,27.13
2019-04-13T14:11:17.236Z,29.72
2019-04-13T14:13:46.645Z,32.48
2019-04-13T14:16:16.226Z,36.98
2019-04-13T14:18:45.819Z,32.42
2019-04-13T14:21:15.249Z,27.17
2019-04-13T14:23:44.772Z,36.35
2019-04-13T14:26:14.103Z,33.53
2019-04-13T14:28:43.592Z,31.45
2019-04-13T14:31:13.066Z,30.27
2019-04-13T14:33:42.620Z,34.15
2019-04-13T14:36:12.048Z,34.50
2019-04-13T14:38:41.666Z,31.97
2019-04-13T14:41:11.087Z,38.88
2019-04-13T14:43:41.273Z,33.88
2019-04-13T14:46:11.757Z,40.08
2019-04-13T14:48:41.229Z,34.45
2019-04-13T14:51:10.994Z,29.57
2019-04-13T14:53:40.515Z,38.30
2019-04-13T14:56:09.959Z,35.78
2019-04-13T14:58:39.478Z,38.65
2019-04-13T15:01:08.873Z,35.48
2019-04-13T15:03:38.345Z,38.65
2019-04-13T15:06:07.816Z,38.02
2019-04-13T15:08:37.253Z,31.40
2019-04-13T15:11:16.611Z,37.23
2019-04-13T15:13:38.284Z,35.40
2019-04-13T15:16:10.771Z,41.02
2019-04-13T15:19:01.539Z,38.67
2019-04-13T15:21:31.781Z,38.08
2019-04-13T15:24:00.234Z,41.30
2019-04-13T15:26:29.876Z,40.90
2019-04-13T15:29:03.075Z,34.30
2019-04-13T15:31:35.334Z,45.67
2019-04-13T15:34:03.675Z,41.60
2019-04-13T15:36:34.131Z,42.45
2019-04-13T15:39:07.261Z,39.50
2019-04-13T15:41:52.252Z,38.38
2019-04-13T15:44:10.958Z,26.60
2019-04-13T15:46:41.543Z,34.45
2019-04-13T15:49:11.181Z,36.28
2019-04-13T15:51:43.071Z,32.03
2019-04-13T15:54:12.322Z,33.08
2019-04-13T15:56:44.307Z,34.08
2019-04-13T15:59:16.421Z,34.43
2019-04-13T16:01:46.819Z,36.35
2019-04-13T16:04:18.388Z,39.35
2019-04-13T16:06:48.642Z,38.02
2019-04-13T16:09:43.300Z,39.03
2019-04-13T16:12:19.178Z,41.15
2019-04-13T16:14:48.568Z,42.03
2019-04-13T16:17:18.750Z,39.70
2019-04-13T16:19:48.266Z,45.28
2019-04-13T16:22:17.785Z,39.78
2019-04-13T16:24:48.535Z,36.73
2019-04-13T16:27:18.564Z,39.73
2019-04-13T16:30:04.369Z,42.55
2019-04-13T16:32:53.464Z,39.90
2019-04-13T16:35:32.839Z,38.45
2019-04-13T16:38:03.496Z,39.83
2019-04-13T16:40:35.604Z,45.28
2019-04-13T16:43:05.873Z,50.43
2019-04-13T16:46:07.321Z,43.55
2019-04-13T16:49:04.952Z,42.70
2019-04-13T16:51:45.747Z,45.43
2019-04-13T16:54:50.721Z,46.75
2019-04-13T16:57:24.010Z,54.33
2019-04-13T17:00:12.206Z,44.75
2019-04-13T17:03:03.644Z,45.78
2019-04-13T17:05:35.532Z,47.65
2019-04-13T17:08:05.617Z,47.88
2019-04-13T17:10:35.711Z,44.85
2019-04-13T17:13:05.637Z,49.27
2019-04-13T17:15:35.530Z,47.98
2019-04-13T17:18:10.036Z,47.73
2019-04-13T17:21:10.617Z,49.42
2019-04-13T17:23:52.252Z,55.25
2019-04-13T17:26:33.542Z,51.40
2019-04-13T17:29:31.640Z,51.83
2019-04-13T17:32:09.047Z,57.27
2019-04-13T17:34:50.701Z,66.85
2019-04-13T17:37:21.206Z,54.53
2019-04-13T17:39:50.842Z,66.12
2019-04-13T17:42:43.030Z,65.67
2019-04-13T17:45:25.300Z,73.92
2019-04-13T17:48:06.449Z,61.58
2019-04-13T17:50:51.648Z,58.65
2019-04-13T17:53:37.344Z,54.95
2019-04-13T17:56:13.400Z,62.25
2019-04-13T17:59:00.665Z,60.75
2019-04-13T18:01:48.202Z,55.85
2019-04-13T18:04:37.293Z,47.85
2019-04-13T18:07:35.021Z,63.83
2019-04-13T18:10:30.077Z,66.47
2019-04-13T18:13:24.627Z,67.55
2019-04-13T18:16:17.467Z,66.45
2019-04-13T18:18:51.873Z,57.67
2019-04-13T18:21:22.066Z,51.53
2019-04-13T18:23:52.619Z,61.05
2019-04-13T18:26:22.763Z,67.58
2019-04-13T18:28:52.320Z,57.93
2019-04-13T18:31:22.878Z,58.17
2019-04-13T18:33:53.374Z,58.65
2019-04-13T18:36:23.523Z,74.35
2019-04-13T18:38:53.981Z,70.32
2019-04-13T18:41:24.464Z,68.02
2019-04-13T18:43:53.983Z,80.07
2019-04-13T18:46:24.352Z,83.05
2019-04-13T18:48:53.788Z,63.92
2019-04-13T18:51:23.482Z,63.48
2019-04-13T18:53:53.339Z,63.45
2019-04-13T18:56:23.201Z,59.75
2019-04-13T18:58:52.769Z,60.12
2019-04-13T19:01:23.746Z,66.70
2019-04-13T19:03:53.601Z,57.23
2019-04-13T19:06:27.206Z,76.60
2019-04-13T19:08:54.194Z,66.20
2019-04-13T19:11:23.588Z,62.83
2019-04-13T19:13:53.150Z,60.08
2019-04-13T19:16:22.574Z,74.25
2019-04-13T19:18:52.001Z,75.17
2019-04-13T19:21:21.419Z,68.35
2019-04-13T19:23:50.872Z,67.47
2019-04-13T19:26:20.964Z,75.62
2019-04-13T19:28:50.689Z,92.88
2019-04-13T19:31:20.215Z,91.47
2019-04-13T19:33:49.679Z,78.67
2019-04-13T19:36:19.217Z,105.35
2019-04-13T19:38:50.736Z,80.85
2019-04-13T19:41:20.008Z,80.90
2019-04-13T19:43:49.613Z,74.07
2019-04-13T19:46:19.067Z,88.80
2019-04-13T19:48:48.637Z,91.97
2019-04-13T19:51:20.415Z,88.05
2019-04-13T19:53:56.815Z,106.25
2019-04-13T19:56:26.252Z,101.70
2019-04-13T19:58:55.597Z,86.30
2019-04-13T20:01:27.734Z,86.92
2019-04-13T20:03:57.398Z,94.92
2019-04-13T20:06:26.903Z,107.50
2019-04-13T20:08:56.283Z,101.87
2019-04-13T20:11:25.772Z,100.38
2019-04-13T20:14:03.520Z,107.03
2019-04-13T20:16:27.362Z,90.28
2019-04-13T20:18:56.856Z,101.07
2019-04-13T20:21:26.321Z,102.92
2019-04-13T20:23:55.842Z,102.75
2019-04-13T20:26:25.337Z,128.78
2019-04-13T20:28:55.033Z,105.17
2019-04-13T20:31:26.824Z,95.17
2019-04-13T20:33:56.758Z,89.77
2019-04-13T20:36:27.369Z,94.13
2019-04-13T20:38:56.940Z,87.67
2019-04-13T20:41:39.921Z,96.42
2019-04-13T20:44:05.759Z,114.95
2019-04-13T20:46:29.839Z,100.00
2019-04-13T20:48:59.862Z,93.03
2019-04-13T20:51:30.115Z,136.05
2019-04-13T20:53:59.662Z,114.55
2019-04-13T20:56:29.438Z,78.15
2019-04-13T20:58:59.746Z,77.35
2019-04-13T21:01:30.072Z,74.70
2019-04-13T21:03:59.808Z,81.25
2019-04-13T21:06:30.411Z,100.45
2019-04-13T21:09:01.014Z,88.50
2019-04-13T21:11:30.744Z,91.30
2019-04-13T21:14:09.094Z,101.67
2019-04-13T21:16:32.077Z,107.95
2019-04-13T21:19:02.544Z,85.53
2019-04-13T21:21:32.398Z,96.40
2019-04-13T21:24:02.421Z,86.40
2019-04-13T21:26:32.775Z,77.82
2019-04-13T21:29:02.535Z,92.37
2019-04-13T21:31:32.518Z,87.90
2019-04-13T21:34:02.686Z,92.35
2019-04-13T21:36:32.817Z,94.77
2019-04-13T21:39:04.822Z,110.95
2019-04-13T21:41:34.491Z,99.80
2019-04-13T21:44:13.360Z,121.13
2019-04-13T21:46:35.078Z,84.62
2019-04-13T21:49:05.419Z,86.97
2019-04-13T21:52:00.371Z,109.92
2019-04-13T21:54:34.241Z,84.52
2019-04-13T21:57:04.539Z,105.27
2019-04-13T21:59:36.979Z,95.55
2019-04-13T22:02:22.554Z,125.50
2019-04-13T22:04:52.389Z,114.95
2019-04-13T22:07:22.172Z,109.65
2019-04-13T22:09:52.046Z,85.62
2019-04-13T22:12:22.157Z,89.95
2019-04-13T22:14:59.774Z,81.92
2019-04-13T22:17:23.056Z,104.30
2019-04-13T22:19:52.955Z,84.97
2019-04-13T22:22:22.895Z,83.05
2019-04-13T22:24:52.984Z,95.47
2019-04-13T22:27:23.160Z,99.95
2019-04-13T22:29:57.454Z,116.37
2019-04-13T22:32:49.615Z,114.62
2019-04-13T22:35:33.103Z,108.60
2019-04-13T22:38:02.639Z,100.87
2019-04-13T22:40:32.123Z,123.58
2019-04-13T22:43:02.459Z,92.62
2019-04-13T22:45:32.008Z,81.32
2019-04-13T22:48:09.805Z,90.47
2019-04-13T22:50:59.033Z,77.42
2019-04-13T22:53:48.248Z,81.72
2019-04-13T22:56:26.753Z,79.85
2019-04-13T22:58:56.040Z,88.92
2019-04-13T23:01:29.074Z,95.07
2019-04-13T23:03:59.413Z,87.17
2019-04-13T23:06:29.263Z,126.50
2019-04-13T23:08:59.674Z,107.07
2019-04-13T23:11:30.164Z,96.65
2019-04-13T23:14:00.520Z,94.07
2019-04-13T23:16:30.284Z,99.20
2019-04-13T23:19:00.218Z,91.37
2019-04-13T23:21:29.697Z,116.25
2019-04-13T23:23:59.499Z,108.42
2019-04-13T23:26:29.798Z,135.07
2019-04-13T23:28:59.753Z,112.28
2019-04-13T23:31:30.407Z,117.10
2019-04-13T23:34:00.728Z,106.30
2019-04-13T23:36:31.206Z,121.07
2019-04-13T23:39:01.675Z,101.47
2019-04-13T23:41:32.197Z,137.62
2019-04-13T23:44:02.707Z,107.25
2019-04-13T23:46:32.896Z,126.30
2019-04-13T23:49:03.602Z,118.25
2019-04-13T23:51:33.893Z,110.48
2019-04-13T23:54:04.206Z,129.80
2019-04-13T23:56:47.536Z,106.43
2019-04-13T23:59:24.101Z,130.67
